Augusta, Maine
Current Conditions -  °F | °C
As of 12:53 AM on Saturday 01 Nov 2014 (Local Time) from KAUG Reporting Station
Broken Clouds Broken Clouds  
Wind Chill: 34°   Ceiling: 2700
Heat Index: 40°   Visibility: 10mi
Dew Point: 32°   Wind: 8mph
Humidity: 73%   Direction: 350°N
Pressure: 30.04"   Gusts: NA
Location:  44.32°N, 69.78°W
Report Text: KAUG 010453Z AUTO 35007KT 10SM BKN027 BKN048 04/00 A3004 RMK AO2 SLP173 T00440000 401000017
Loading
Personal Weather Stations






























Interactive Weather Map
Tropical Storm Tracking
New forecast layout! Learn more

10-Day Weather Forecast

Advertisements
Track Severe Weather on mobile